createdAt,value
2019-04-03T00:04:27.990Z,21.2
2019-04-03T00:09:14.888Z,21.3
2019-04-03T00:14:01.848Z,21.3
2019-04-03T00:18:49.089Z,21.3
2019-04-03T00:23:36.213Z,21.3
2019-04-03T00:28:23.986Z,21.3
2019-04-03T00:33:12.164Z,21.3
2019-04-03T00:37:59.318Z,21.4
2019-04-03T00:42:47.178Z,21.4
2019-04-03T00:47:34.391Z,21.4
2019-04-03T00:52:21.245Z,21.4
2019-04-03T00:57:09.020Z,21.4
2019-04-03T01:01:56.737Z,21.5
2019-04-03T01:06:45.473Z,21.5
2019-04-03T01:11:34.349Z,21.5
2019-04-03T01:16:21.420Z,21.5
2019-04-03T01:21:08.331Z,21.6
2019-04-03T01:25:55.152Z,21.6
2019-04-03T01:30:43.839Z,21.6
2019-04-03T01:35:31.123Z,21.7
2019-04-03T01:40:20.309Z,21.7
2019-04-03T01:45:10.029Z,21.7
2019-04-03T01:49:58.641Z,21.8
2019-04-03T01:54:46.670Z,21.8
2019-04-03T01:59:35.841Z,21.8
2019-04-03T02:04:24.640Z,21.9
2019-04-03T02:09:11.615Z,21.9
2019-04-03T02:13:59.362Z,21.9
2019-04-03T02:18:46.270Z,22
2019-04-03T02:23:34.137Z,22
2019-04-03T02:28:21.517Z,22
2019-04-03T02:33:09.013Z,22.1
2019-04-03T02:37:56.617Z,22.1
2019-04-03T02:42:43.745Z,22.1
2019-04-03T02:47:33.495Z,22.2
2019-04-03T02:52:24.337Z,22.2
2019-04-03T02:57:11.896Z,22.2
2019-04-03T03:01:59.477Z,22.2
2019-04-03T03:06:49.352Z,22.3
2019-04-03T03:11:36.438Z,22.3
2019-04-03T03:16:23.731Z,22.3
2019-04-03T03:21:12.816Z,22.4
2019-04-03T03:26:04.155Z,22.4
2019-04-03T03:31:01.117Z,22.4
2019-04-03T03:35:53.558Z,22.5
2019-04-03T03:40:40.728Z,22.5
2019-04-03T03:45:28.644Z,22.4
2019-04-03T03:50:15.684Z,22.4
2019-04-03T03:55:03.352Z,22.5
2019-04-03T03:59:51.874Z,22.5
2019-04-03T04:04:40.016Z,22.5
2019-04-03T04:09:27.931Z,22.6
2019-04-03T04:14:16.388Z,22.6
2019-04-03T04:19:04.449Z,22.6
2019-04-03T04:23:53.163Z,22.5
2019-04-03T04:28:43.381Z,22.5
2019-04-03T04:33:30.785Z,22.6
2019-04-03T04:38:17.698Z,22.6
2019-04-03T04:43:07.439Z,22.6
2019-04-03T04:47:55.979Z,22.7
2019-04-03T04:52:44.490Z,22.7
2019-04-03T04:57:31.398Z,22.7
2019-04-03T05:02:19.752Z,22.8
2019-04-03T05:07:07.772Z,22.8
2019-04-03T05:11:55.946Z,22.8
2019-04-03T05:16:44.744Z,22.9
2019-04-03T05:21:32.186Z,22.9
2019-04-03T05:26:21.057Z,22.9
2019-04-03T05:31:11.650Z,23
2019-04-03T05:35:59.020Z,23
2019-04-03T05:40:46.163Z,23.1
2019-04-03T05:45:35.360Z,23.2
2019-04-03T05:50:25.717Z,23.2
2019-04-03T05:55:13.385Z,23.3
2019-04-03T06:00:02.543Z,23.3
2019-04-03T06:04:51.384Z,23.3
2019-04-03T06:09:38.810Z,23.4
2019-04-03T06:14:26.083Z,23.4
2019-04-03T06:19:12.968Z,23.5
2019-04-03T06:24:00.694Z,23.5
2019-04-03T06:28:47.901Z,23.6
2019-04-03T06:33:36.580Z,23.6
2019-04-03T06:38:24.538Z,23.6
2019-04-03T06:43:12.536Z,23.7
2019-04-03T06:47:59.921Z,23.7
2019-04-03T06:52:47.445Z,23.8
2019-04-03T06:57:34.299Z,23.8
2019-04-03T07:02:21.405Z,23.9
2019-04-03T07:07:09.185Z,23.9
2019-04-03T07:11:57.598Z,23.9
2019-04-03T07:16:44.597Z,23.9
2019-04-03T07:21:32.412Z,23.9
2019-04-03T07:26:20.703Z,24
2019-04-03T07:31:07.810Z,24
2019-04-03T07:35:54.948Z,24
2019-04-03T07:40:42.139Z,24.1
2019-04-03T07:45:29.110Z,24.1
2019-04-03T07:50:16.799Z,24.1
2019-04-03T07:55:04.285Z,24.1
2019-04-03T07:59:51.945Z,24.2
2019-04-03T08:04:39.173Z,24.3
2019-04-03T08:09:26.137Z,24.3
2019-04-03T08:14:12.953Z,24.4
2019-04-03T08:18:59.889Z,24.4
2019-04-03T08:23:46.944Z,24.5
2019-04-03T08:28:34.359Z,24.6
2019-04-03T08:33:26.125Z,24.6
2019-04-03T08:38:15.346Z,24.6
2019-04-03T08:43:03.097Z,24.7
2019-04-03T08:47:50.094Z,24.7
2019-04-03T08:52:37.813Z,24.7
2019-04-03T08:57:26.055Z,24.8
2019-04-03T09:02:13.346Z,24.8
2019-04-03T09:07:00.735Z,24.9
2019-04-03T09:11:49.041Z,24.9
2019-04-03T09:16:36.045Z,24.9
2019-04-03T09:21:23.905Z,24.9
2019-04-03T09:26:11.149Z,25
2019-04-03T09:30:58.068Z,25
2019-04-03T09:35:47.026Z,25
2019-04-03T09:40:34.232Z,25
2019-04-03T09:45:21.354Z,25
2019-04-03T09:50:08.591Z,25
2019-04-03T09:54:59.772Z,25
2019-04-03T09:59:47.885Z,25
2019-04-03T10:04:35.772Z,25
2019-04-03T10:09:23.101Z,25
2019-04-03T10:14:10.612Z,25
2019-04-03T10:18:58.015Z,25
2019-04-03T10:23:45.507Z,25
2019-04-03T10:28:32.505Z,25
2019-04-03T10:33:19.450Z,25
2019-04-03T10:38:07.025Z,25
2019-04-03T10:42:54.055Z,25
2019-04-03T10:47:43.575Z,25
2019-04-03T10:52:31.684Z,25
2019-04-03T10:57:18.926Z,25
2019-04-03T11:02:06.683Z,25
2019-04-03T11:06:54.119Z,25
2019-04-03T11:11:43.454Z,25
2019-04-03T11:16:31.522Z,25
2019-04-03T11:21:19.036Z,25
2019-04-03T11:26:06.929Z,25
2019-04-03T11:30:55.937Z,25
2019-04-03T11:35:47.927Z,25
2019-04-03T11:40:34.992Z,25
2019-04-03T11:45:24.085Z,25
2019-04-03T11:50:11.407Z,25
2019-04-03T11:54:58.353Z,25
2019-04-03T11:59:47.356Z,25
2019-04-03T12:04:35.612Z,24.9
2019-04-03T12:09:24.974Z,24.9
2019-04-03T12:14:13.129Z,24.9
2019-04-03T12:19:00.143Z,24.9
2019-04-03T12:23:47.575Z,24.9
2019-04-03T12:28:35.289Z,24.9
2019-04-03T12:33:23.297Z,25
2019-04-03T12:38:11.437Z,25
2019-04-03T12:42:59.983Z,25
2019-04-03T12:47:47.749Z,25
2019-04-03T12:52:35.370Z,25.1
2019-04-03T12:57:22.304Z,25
2019-04-03T13:02:09.875Z,25
2019-04-03T13:06:57.747Z,25.1
2019-04-03T13:11:44.761Z,25.1
2019-04-03T13:16:31.721Z,25.1
2019-04-03T13:21:19.670Z,25.1
2019-04-03T13:26:07.681Z,25.1
2019-04-03T13:30:54.655Z,25.2
2019-04-03T13:35:41.987Z,25.2
2019-04-03T13:40:29.942Z,25.2
2019-04-03T13:45:17.112Z,25.3
2019-04-03T13:50:05.140Z,25.3
2019-04-03T13:54:53.281Z,25.3
2019-04-03T13:59:40.937Z,25.4
2019-04-03T14:04:28.322Z,25.4
2019-04-03T14:09:17.560Z,25.4
2019-04-03T14:14:05.475Z,25.5
2019-04-03T14:18:52.753Z,25.5
2019-04-03T14:23:41.095Z,25.5
2019-04-03T14:28:28.879Z,25.5
2019-04-03T14:33:19.686Z,25.6
2019-04-03T14:38:07.048Z,25.6
2019-04-03T14:42:54.273Z,25.6
2019-04-03T14:47:41.928Z,25.6
2019-04-03T14:52:29.085Z,25.7
2019-04-03T14:57:22.421Z,25.7
2019-04-03T15:02:11.467Z,25.7
2019-04-03T15:07:03.450Z,25.7
2019-04-03T15:11:53.517Z,25.6
2019-04-03T15:16:40.894Z,25.7
2019-04-03T15:21:27.846Z,25.7
2019-04-03T15:26:15.853Z,25.6
2019-04-03T15:31:03.089Z,25.6
2019-04-03T15:35:50.749Z,25.7
2019-04-03T15:40:38.694Z,25.7
2019-04-03T15:45:26.304Z,25.7
2019-04-03T15:50:14.083Z,25.7
2019-04-03T15:55:03.594Z,25.7
2019-04-03T15:59:53.296Z,25.7
2019-04-03T16:04:40.794Z,25.7
2019-04-03T16:09:28.354Z,25.7
2019-04-03T16:14:18.558Z,25.7
2019-04-03T16:19:08.415Z,25.7
2019-04-03T16:23:58.412Z,25.7
2019-04-03T16:28:45.240Z,25.7
2019-04-03T16:33:33.373Z,25.7
2019-04-03T16:38:22.843Z,25.7
2019-04-03T16:43:10.298Z,25.7
2019-04-03T16:47:57.989Z,25.7
2019-04-03T16:52:47.335Z,25.7
2019-04-03T16:57:34.599Z,25.7
2019-04-03T17:02:25.243Z,25.7
2019-04-03T17:07:13.265Z,25.7
2019-04-03T17:12:00.938Z,25.7
2019-04-03T17:16:50.573Z,25.7
2019-04-03T17:21:39.353Z,25.7
2019-04-03T17:26:27.344Z,25.7
2019-04-03T17:31:14.588Z,25.7
2019-04-03T17:36:01.723Z,25.7
2019-04-03T17:40:48.822Z,25.7
2019-04-03T17:45:37.679Z,25.7
2019-04-03T17:50:24.966Z,25.6
2019-04-03T17:55:12.142Z,25.7
2019-04-03T17:59:59.284Z,25.7
2019-04-03T18:04:48.879Z,25.7
2019-04-03T18:09:38.125Z,25.7
2019-04-03T18:14:27.912Z,25.7
2019-04-03T18:19:15.114Z,25.7
2019-04-03T18:24:03.083Z,25.7
2019-04-03T18:28:50.390Z,25.7
2019-04-03T18:33:38.242Z,25.7
2019-04-03T18:38:25.666Z,25.7
2019-04-03T18:43:13.639Z,25.8
2019-04-03T18:48:00.912Z,25.8
2019-04-03T18:52:48.581Z,25.8
2019-04-03T18:57:35.748Z,25.8
2019-04-03T19:02:23.420Z,25.9
2019-04-03T19:07:10.787Z,25.9
2019-04-03T19:12:07.891Z,26
2019-04-03T19:16:55.705Z,26
2019-04-03T19:21:43.406Z,26.1
2019-04-03T19:26:31.767Z,26.2
2019-04-03T19:31:20.015Z,26.2
2019-04-03T19:36:07.293Z,26.3
2019-04-03T19:40:55.194Z,26.3
2019-04-03T19:45:42.130Z,26.4
2019-04-03T19:50:31.793Z,26.4
2019-04-03T19:55:23.186Z,26.5
2019-04-03T20:00:11.187Z,26.5
2019-04-03T20:04:58.932Z,26.5
2019-04-03T20:09:46.904Z,26.5
2019-04-03T20:14:33.790Z,26.5
2019-04-03T20:19:21.200Z,26.6
2019-04-03T20:24:08.123Z,26.6
2019-04-03T20:28:56.921Z,26.6
2019-04-03T20:33:44.879Z,26.6
2019-04-03T20:38:35.620Z,26.7
2019-04-03T20:43:23.446Z,26.7
2019-04-03T20:48:11.008Z,26.7
2019-04-03T20:52:58.399Z,26.7
2019-04-03T20:57:55.295Z,26.8
2019-04-03T21:02:43.958Z,26.8
2019-04-03T21:07:31.534Z,26.8
2019-04-03T21:12:18.851Z,26.8
2019-04-03T21:17:05.845Z,26.8
2019-04-03T21:21:52.637Z,26.8
2019-04-03T21:26:39.900Z,26.9
2019-04-03T21:31:27.670Z,26.9
2019-04-03T21:36:14.785Z,26.9
2019-04-03T21:41:01.932Z,26.9
2019-04-03T21:45:48.794Z,26.9
2019-04-03T21:50:36.752Z,27
2019-04-03T21:55:24.448Z,27
2019-04-03T22:00:14.029Z,27
2019-04-03T22:05:02.643Z,27.1
2019-04-03T22:09:49.847Z,27.1
2019-04-03T22:14:37.876Z,27.1
2019-04-03T22:19:27.396Z,27.1
2019-04-03T22:24:15.497Z,27.1
2019-04-03T22:29:02.855Z,27.2
2019-04-03T22:33:50.702Z,27.2
2019-04-03T22:38:37.903Z,27.3
2019-04-03T22:43:25.209Z,27.3
2019-04-03T22:48:12.623Z,27.4
2019-04-03T22:53:00.188Z,27.4
2019-04-03T22:57:47.141Z,27.4
2019-04-03T23:02:33.962Z,27.5
2019-04-03T23:07:21.457Z,27.5
2019-04-03T23:12:09.258Z,27.5
2019-04-03T23:16:56.050Z,27.5
2019-04-03T23:21:43.265Z,27.6
2019-04-03T23:26:32.234Z,27.6
2019-04-03T23:31:19.835Z,27.6
2019-04-03T23:36:07.289Z,27.6
2019-04-03T23:40:55.023Z,27.7
2019-04-03T23:45:43.799Z,27.7
2019-04-03T23:50:32.452Z,27.7
2019-04-03T23:55:19.921Z,27.8
